Time,TemperatureF,DewpointF,PressureIn,WindDirection,WindDirectionDegrees,WindSpeedMPH,WindSpeedGustMPH,Humidity,HourlyPrecipIn,Conditions,Clouds,dailyrainin,SolarRadiationWatts/m^2,SoftwareType,DateUTC
2013-10-30 00:02:00,42.0,31.0,-100.00,NNE,20,0.0,0.0,64,0.00,,,0.00,0.000000,,2013-10-30 07:02:00,
2013-10-30 00:42:00,42.0,29.0,-100.00,NE,38,0.0,0.0,59,0.00,,,0.00,0.000000,,2013-10-30 07:42:00,
2013-10-30 00:52:00,42.0,29.0,-100.00,NE,38,0.0,0.0,59,0.00,,,0.00,0.000000,,2013-10-30 07:52:00,
2013-10-30 01:02:00,42.0,29.0,-100.00,NE,38,0.0,0.0,59,0.00,,,0.00,0.000000,,2013-10-30 08:02:00,
2013-10-30 01:22:00,40.0,29.0,-100.00,NNW,340,0.0,0.0,65,0.00,,,0.00,0.000000,,2013-10-30 08:22:00,
2013-10-30 01:32:00,40.0,29.0,-100.00,NNW,340,0.0,0.0,65,0.00,,,0.00,0.000000,,2013-10-30 08:32:00,
2013-10-30 01:42:00,40.0,29.0,-100.00,NNW,340,0.0,0.0,65,0.00,,,0.00,0.000000,,2013-10-30 08:42:00,
2013-10-30 01:52:00,40.0,29.0,-100.00,NNW,340,0.0,0.0,65,0.00,,,0.00,0.000000,,2013-10-30 08:52:00,
2013-10-30 02:02:00,40.0,29.0,-100.00,NNW,340,0.0,0.0,65,0.00,,,0.00,0.000000,,2013-10-30 09:02:00,
2013-10-30 02:03:00,41.0,31.0,-100.00,North,358,0.0,0.0,67,0.00,,,0.00,0.000000,,2013-10-30 09:03:00,
2013-10-30 02:22:00,41.0,31.0,-100.00,North,358,0.0,0.0,67,0.00,,,0.00,0.000000,,2013-10-30 09:22:00,
2013-10-30 02:33:00,41.0,31.0,-100.00,North,358,0.0,0.0,67,0.00,,,0.00,0.000000,,2013-10-30 09:33:00,
2013-10-30 02:43:00,41.0,31.0,-100.00,North,358,0.0,0.0,67,0.00,,,0.00,0.000000,,2013-10-30 09:43:00,
2013-10-30 02:54:00,41.0,31.0,-100.00,North,358,0.0,0.0,67,0.00,,,0.00,0.000000,,2013-10-30 09:54:00,
2013-10-30 03:43:00,40.0,30.0,-100.00,North,0,0.0,0.0,68,0.00,,,0.00,0.000000,,2013-10-30 10:43:00,
2013-10-30 03:53:00,40.0,30.0,-100.00,North,0,0.0,0.0,68,0.00,,,0.00,0.000000,,2013-10-30 10:53:00,
2013-10-30 04:02:00,40.0,30.0,-100.00,North,0,0.0,0.0,68,0.00,,,0.00,0.000000,,2013-10-30 11:02:00,
2013-10-30 04:42:00,42.0,31.0,-100.00,NNE,33,0.0,0.0,64,0.00,,,0.00,0.000000,,2013-10-30 11:42:00,
2013-10-30 04:52:00,42.0,31.0,-100.00,NNE,33,0.0,0.0,64,0.00,,,0.00,0.000000,,2013-10-30 11:52:00,
2013-10-30 05:01:00,42.0,31.0,-100.00,NNE,33,0.0,0.0,64,0.00,,,0.00,0.000000,,2013-10-30 12:01:00,
2013-10-30 05:22:00,39.0,30.0,-100.00,North,358,0.0,0.0,70,0.00,,,-99.99,0.000000,,2013-10-30 12:22:00,
2013-10-30 05:32:00,39.0,30.0,-100.00,North,358,0.0,0.0,70,0.00,,,-99.99,0.000000,,2013-10-30 12:32:00,
2013-10-30 05:42:00,39.0,30.0,-100.00,North,358,0.0,0.0,70,0.00,,,-99.99,0.000000,,2013-10-30 12:42:00,
2013-10-30 05:52:00,39.0,30.0,-100.00,North,358,0.0,0.0,70,0.00,,,-99.99,0.000000,,2013-10-30 12:52:00,
2013-10-30 06:02:00,39.0,30.0,-100.00,North,358,0.0,0.0,70,0.00,,,-99.99,0.000000,,2013-10-30 13:02:00,
2013-10-30 06:42:00,38.0,30.0,-100.00,NNE,30,0.0,0.0,74,0.00,,,0.00,0.000000,,2013-10-30 13:42:00,
2013-10-30 06:52:00,38.0,30.0,-100.00,NNE,30,0.0,0.0,74,0.00,,,0.00,0.000000,,2013-10-30 13:52:00,
2013-10-30 07:02:00,38.0,30.0,-100.00,NNE,30,0.0,0.0,74,0.00,,,0.00,0.000000,,2013-10-30 14:02:00,
2013-10-30 07:42:00,39.0,29.0,-100.00,NNE,16,0.0,0.0,66,0.00,,,0.00,2.000000,,2013-10-30 14:42:00,
2013-10-30 07:52:00,39.0,29.0,-100.00,NNE,16,0.0,0.0,66,0.00,,,0.00,2.000000,,2013-10-30 14:52:00,
2013-10-30 08:01:00,39.0,29.0,-100.00,NNE,16,0.0,0.0,66,0.00,,,0.00,2.000000,,2013-10-30 15:01:00,
2013-10-30 08:03:00,42.0,30.0,-100.00,NNE,25,0.0,0.0,63,0.00,,,0.00,30.000000,,2013-10-30 15:03:00,
2013-10-30 08:22:00,42.0,30.0,-100.00,NNE,25,0.0,0.0,63,0.00,,,0.00,30.000000,,2013-10-30 15:22:00,
2013-10-30 08:33:00,42.0,30.0,-100.00,NNE,25,0.0,0.0,63,0.00,,,0.00,30.000000,,2013-10-30 15:33:00,
2013-10-30 08:43:00,42.0,30.0,-100.00,NNE,25,0.0,0.0,63,0.00,,,0.00,30.000000,,2013-10-30 15:43:00,
2013-10-30 08:54:00,42.0,30.0,-100.00,NNE,25,0.0,0.0,63,0.00,,,0.00,30.000000,,2013-10-30 15:54:00,
2013-10-30 09:23:00,41.0,38.0,-100.00,NNW,328,0.0,0.0,88,0.10,,,0.10,88.000000,,2013-10-30 16:23:00,
2013-10-30 09:33:00,41.0,38.0,-100.00,NNW,328,0.0,0.0,88,0.10,,,0.10,88.000000,,2013-10-30 16:33:00,
2013-10-30 09:43:00,41.0,38.0,-100.00,NNW,328,0.0,0.0,88,0.10,,,0.10,88.000000,,2013-10-30 16:43:00,
2013-10-30 09:53:00,41.0,38.0,-100.00,NNW,328,0.0,0.0,88,0.10,,,0.10,88.000000,,2013-10-30 16:53:00,
2013-10-30 10:02:00,41.0,38.0,-100.00,NNW,328,0.0,0.0,88,0.10,,,0.10,88.000000,,2013-10-30 17:02:00,
2013-10-30 10:23:00,47.0,37.0,-100.00,SSE,168,0.0,0.0,69,0.00,,,0.10,297.000000,,2013-10-30 17:23:00,
2013-10-30 10:33:00,47.0,37.0,-100.00,SSE,168,0.0,0.0,69,0.00,,,0.10,297.000000,,2013-10-30 17:33:00,
2013-10-30 10:42:00,47.0,37.0,-100.00,SSE,168,0.0,0.0,69,0.00,,,0.10,297.000000,,2013-10-30 17:42:00,
2013-10-30 10:52:00,47.0,37.0,-100.00,SSE,168,0.0,0.0,69,0.00,,,0.10,297.000000,,2013-10-30 17:52:00,
2013-10-30 11:02:00,47.0,37.0,-100.00,SSE,168,0.0,0.0,69,0.00,,,0.10,297.000000,,2013-10-30 18:02:00,
2013-10-30 11:52:00,44.0,35.0,-100.00,NNW,348,0.0,0.0,71,0.00,,,0.10,211.000000,,2013-10-30 18:52:00,
2013-10-30 12:01:00,44.0,35.0,-100.00,NNW,348,0.0,0.0,71,0.00,,,0.10,211.000000,,2013-10-30 19:01:00,
2013-10-30 12:42:00,52.0,34.0,-100.00,SE,145,0.0,0.0,51,-99.99,,,0.10,371.000000,,2013-10-30 19:42:00,
2013-10-30 12:52:00,52.0,34.0,-100.00,SE,145,0.0,0.0,51,-99.99,,,0.10,371.000000,,2013-10-30 19:52:00,
2013-10-30 13:02:00,52.0,34.0,-100.00,SE,145,0.0,0.0,51,-99.99,,,0.10,371.000000,,2013-10-30 20:02:00,
2013-10-30 13:22:00,56.0,29.0,-100.00,SE,129,0.0,0.0,35,0.00,,,0.10,621.000000,,2013-10-30 20:22:00,
2013-10-30 13:32:00,56.0,29.0,-100.00,SE,129,0.0,0.0,35,0.00,,,0.10,621.000000,,2013-10-30 20:32:00,
2013-10-30 13:42:00,56.0,29.0,-100.00,SE,129,0.0,0.0,35,0.00,,,0.10,621.000000,,2013-10-30 20:42:00,
2013-10-30 13:52:00,56.0,29.0,-100.00,SE,129,0.0,0.0,35,0.00,,,0.10,621.000000,,2013-10-30 20:52:00,
2013-10-30 14:01:00,56.0,29.0,-100.00,SE,129,0.0,0.0,35,0.00,,,0.10,621.000000,,2013-10-30 21:01:00,
2013-10-30 14:03:00,58.0,28.0,-100.00,SE,140,0.0,0.0,31,0.00,,,0.10,435.000000,,2013-10-30 21:03:00,
2013-10-30 14:22:00,58.0,28.0,-100.00,SE,140,0.0,0.0,31,0.00,,,0.10,435.000000,,2013-10-30 21:22:00,
2013-10-30 14:33:00,58.0,28.0,-100.00,SE,140,0.0,0.0,31,0.00,,,0.10,435.000000,,2013-10-30 21:33:00,
2013-10-30 14:43:00,58.0,28.0,-100.00,SE,140,0.0,0.0,31,0.00,,,0.10,435.000000,,2013-10-30 21:43:00,
2013-10-30 14:53:00,58.0,28.0,-100.00,SE,140,0.0,0.0,31,0.00,,,0.10,435.000000,,2013-10-30 21:53:00,
2013-10-30 15:43:00,62.0,27.0,-100.00,ENE,62,0.0,0.0,26,0.00,,,0.10,417.000000,,2013-10-30 22:43:00,
2013-10-30 15:54:00,62.0,27.0,-100.00,ENE,62,0.0,0.0,26,0.00,,,0.10,417.000000,,2013-10-30 22:54:00,
2013-10-30 16:02:00,62.0,27.0,-100.00,ENE,62,0.0,0.0,26,0.00,,,0.10,417.000000,,2013-10-30 23:02:00,
2013-10-30 16:42:00,54.0,29.0,-100.00,SSW,203,0.0,0.0,38,0.00,,,0.10,268.000000,,2013-10-30 23:42:00,
2013-10-30 16:53:00,54.0,29.0,-100.00,SSW,203,0.0,0.0,38,0.00,,,0.10,268.000000,,2013-10-30 23:53:00,
2013-10-30 17:02:00,54.0,29.0,-100.00,SSW,203,0.0,0.0,38,0.00,,,0.10,268.000000,,2013-10-31 00:02:00,
2013-10-30 19:52:00,39.0,30.0,-100.00,WNW,295,0.0,0.0,69,0.00,,,0.10,0.000000,,2013-10-31 02:52:00,
2013-10-30 20:02:00,39.0,30.0,-100.00,WNW,295,0.0,0.0,69,0.00,,,0.10,0.000000,,2013-10-31 03:02:00,
2013-10-30 20:03:00,40.0,25.0,-100.00,North,5,0.0,0.0,55,0.00,,,0.10,0.000000,,2013-10-31 03:03:00,
2013-10-30 20:22:00,40.0,25.0,-100.00,North,5,0.0,0.0,55,0.00,,,0.10,0.000000,,2013-10-31 03:22:00,
2013-10-30 20:34:00,40.0,25.0,-100.00,North,5,0.0,0.0,55,0.00,,,0.10,0.000000,,2013-10-31 03:34:00,
2013-10-30 20:44:00,40.0,25.0,-100.00,North,5,0.0,0.0,55,0.00,,,0.10,0.000000,,2013-10-31 03:44:00,
2013-10-30 20:55:00,40.0,25.0,-100.00,North,5,0.0,0.0,55,0.00,,,0.10,0.000000,,2013-10-31 03:55:00,
2013-10-30 21:03:00,40.0,26.0,-100.00,NNE,17,0.0,0.0,56,0.00,,,0.10,0.000000,,2013-10-31 04:03:00,
2013-10-30 21:43:00,40.0,26.0,-100.00,NNE,17,0.0,0.0,56,0.00,,,0.10,0.000000,,2013-10-31 04:43:00,
2013-10-30 21:54:00,40.0,26.0,-100.00,NNE,17,0.0,0.0,56,0.00,,,0.10,0.000000,,2013-10-31 04:54:00,
2013-10-30 22:43:00,39.0,25.0,-100.00,NNW,344,0.0,0.0,57,0.00,,,0.10,0.000000,,2013-10-31 05:43:00,
2013-10-30 22:52:00,39.0,25.0,-100.00,NNW,344,0.0,0.0,57,0.00,,,0.10,0.000000,,2013-10-31 05:52:00,
2013-10-30 23:02:00,39.0,25.0,-100.00,NNW,344,0.0,0.0,57,0.00,,,0.10,0.000000,,2013-10-31 06:02:00,
2013-10-30 23:42:00,37.0,23.0,-100.00,NNE,26,0.0,0.0,56,0.00,,,0.10,0.000000,,2013-10-31 06:42:00,
2013-10-30 23:53:00,37.0,23.0,-100.00,NNE,26,0.0,0.0,56,0.00,,,0.10,0.000000,,2013-10-31 06:53:00,